Araz River — UHYN — position and weather

sailwx.info

Track history (hours):
 
Tides and Currents Weather Stations Pressure Air Temp Water Temp Dewpoint Dewpoint Depression Visibility Wind Speed Wind Dir Waves Ship Positions

Araz River

Last reported at 2018-Jun-09 17:50 UTC. Time now 2018-Jun-23 21:30 UTC.
Position N 45°43' E 036°55'.
Warning: this ship's position is 14 days out of date.

Length 140 m; draft 3.2 m.

Type: Ship. MMSI: 273339920.

Date/timePositionNaut miles runAvg speedWind from/ knotsBaromVisibWave heightAir tempDewpointWater temp
2018-Jun-09 17:50N 45°43' E 036°55'4 8.2
2018-Jun-09 17:18N 45°39' E 036°52'3 8.2
2018-Jun-09 16:59N 45°36' E 036°51'4 8.1
2018-Jun-09 16:30N 45°33' E 036°49'4 7.9
2018-Jun-09 16:00N 45°30' E 036°45'4 8.0
2018-Jun-09 15:31N 45°27' E 036°42'7 6.9
2018-Jun-09 14:31N 45°20' E 036°38'3 6.0
2018-Jun-09 14:00N 45°19' E 036°34'4 7.0
2018-Jun-09 13:29N 45°18' E 036°29'2 4.5
2018-Jun-09 13:01N 45°16' E 036°28'4 7.0
2018-Jun-09 12:27N 45°12' E 036°28'4 7.9
2018-Jun-09 11:59N 45°08' E 036°29'4 7.8
2018-Jun-09 11:31N 45°04' E 036°30'4 8.3
2018-Jun-09 11:00N 45°00' E 036°30'227 7.3
2018-Jun-08 04:06N 42°46' E 032°16'1 6.9
2018-Jun-08 03:59N 42°45' E 032°15'61 7.1
2018-Jun-07 19:22N 42°12' E 031°06'32 7.5
2018-Jun-07 15:04N 41°54' E 030°30'1 7.5
2018-Jun-07 15:00N 41°53' E 030°29'4 7.5
2018-Jun-07 14:30N 41°51' E 030°25'  
2018-Jun-01 06:10N 37°37' E 025°54'1 5.4
2018-Jun-01 05:58N 37°36' E 025°54'3 5.4
2018-Jun-01 05:30N 37°33' E 025°54'3 5.5
2018-Jun-01 05:00N 37°30' E 025°54'3 5.3
2018-Jun-01 04:30N 37°28' E 025°55'  
Track history (hours):
 
Tides and Currents Weather Stations Pressure Air Temp Water Temp Dewpoint Dewpoint Depression Visibility Wind Speed Wind Dir Waves Ship Positions

Araz River

Last reported at 2018-Jun-09 17:50 UTC. Time now 2018-Jun-23 21:30 UTC.
Position N 45°43' E 036°55'.
Warning: this ship's position is 14 days out of date.

Length 140 m; draft 3.2 m.

Type: Ship. MMSI: 273339920.

Date/timePositionNaut miles runAvg speedWind from/ knotsBaromVisibWave heightAir tempDewpointWater temp
2018-Jun-09 17:50N 45°43' E 036°55'4 8.2
2018-Jun-09 17:18N 45°39' E 036°52'3 8.2
2018-Jun-09 16:59N 45°36' E 036°51'4 8.1
2018-Jun-09 16:30N 45°33' E 036°49'4 7.9
2018-Jun-09 16:00N 45°30' E 036°45'4 8.0
2018-Jun-09 15:31N 45°27' E 036°42'7 6.9
2018-Jun-09 14:31N 45°20' E 036°38'3 6.0
2018-Jun-09 14:00N 45°19' E 036°34'4 7.0
2018-Jun-09 13:29N 45°18' E 036°29'2 4.5
2018-Jun-09 13:01N 45°16' E 036°28'4 7.0
2018-Jun-09 12:27N 45°12' E 036°28'4 7.9
2018-Jun-09 11:59N 45°08' E 036°29'4 7.8
2018-Jun-09 11:31N 45°04' E 036°30'4 8.3
2018-Jun-09 11:00N 45°00' E 036°30'227 7.3
2018-Jun-08 04:06N 42°46' E 032°16'1 6.9
2018-Jun-08 03:59N 42°45' E 032°15'61 7.1
2018-Jun-07 19:22N 42°12' E 031°06'32 7.5
2018-Jun-07 15:04N 41°54' E 030°30'1 7.5
2018-Jun-07 15:00N 41°53' E 030°29'4 7.5
2018-Jun-07 14:30N 41°51' E 030°25'  
2018-Jun-01 06:10N 37°37' E 025°54'1 5.4
2018-Jun-01 05:58N 37°36' E 025°54'3 5.4
2018-Jun-01 05:30N 37°33' E 025°54'3 5.5
2018-Jun-01 05:00N 37°30' E 025°54'3 5.3
2018-Jun-01 04:30N 37°28' E 025°55'  

Dump ship's entire track history